Time;durP1;ratioP1;P1;durP2;ratioP2;P2;SDS_P1;SDS_P2;PMS_P1;PMS_P2;Temp;Humidity;BMP_temperature;BMP_pressure;BME280_temperature;BME280_humidity;BME280_pressure;Samples;Min_cycle;Max_cycle;Signal;HPM_P1;HPM_P2
2024/02/02 00:01:49;;;;;;;;;;;3.00;85.70;;;;;;5127433;27;19971;-59
2024/02/02 00:04:21;;;;;;;;;;;3.10;85.60;;;;;;5124160;27;20301;-60
2024/02/02 00:06:54;;;;;;;;;;;3.00;85.80;;;;;;5131556;27;20447;-60
2024/02/02 00:09:28;;;;;;;;;;;3.10;85.90;;;;;;5126468;27;19924;-60
2024/02/02 00:12:01;;;;;;;;;;;3.10;85.90;;;;;;5134152;27;19963;-61
2024/02/02 00:14:35;;;;;;;;;;;3.10;85.90;;;;;;5136631;27;19923;-60
2024/02/02 00:17:09;;;;;;;;;;;3.00;85.80;;;;;;5135967;27;20002;-59
2024/02/02 00:19:41;;;;;;;;;;;3.00;86.00;;;;;;5133173;27;19976;-59
2024/02/02 00:22:14;;;;;;;;;;;3.00;86.00;;;;;;5145901;27;19931;-60
2024/02/02 00:24:49;;;;;;;;;;;3.10;86.00;;;;;;5153109;27;19930;-61
2024/02/02 00:27:15;;;;;;;;;;;3.10;86.00;;;;;;5150093;27;19923;-60
2024/02/02 00:29:50;;;;;;;;;;;3.00;86.00;;;;;;5155721;27;19927;-61
2024/02/02 00:32:23;;;;;;;;;;;3.10;86.10;;;;;;5149466;27;20014;-61
2024/02/02 00:34:56;;;;;;;;;;;3.00;86.10;;;;;;5153314;27;19923;-59
2024/02/02 00:37:29;;;;;;;;;;;3.10;86.10;;;;;;5149705;27;20296;-60
2024/02/02 00:40:03;;;;;;;;;;;3.00;86.10;;;;;;5156024;27;19946;-61
2024/02/02 00:42:36;;;;;;;;;;;3.00;86.10;;;;;;5154560;27;19930;-60
2024/02/02 00:45:11;;;;;;;;;;;3.00;86.20;;;;;;5140860;27;19923;-61
2024/02/02 00:47:44;;;;;;;;;;;3.00;86.30;;;;;;5156369;27;19923;-60
2024/02/02 00:50:17;;;;;;;;;;;3.00;86.30;;;;;;5149449;27;20401;-59
2024/02/02 00:52:57;;;;;;;;;;;3.00;86.10;;;;;;5156414;27;19946;-61
2024/02/02 00:55:31;;;;;;;;;;;3.00;86.00;;;;;;5154223;27;19931;-63
2024/02/02 00:58:04;;;;;;;;;;;3.00;86.10;;;;;;5155147;27;19931;-60
2024/02/02 01:00:32;;;;;;;;;;;3.00;86.20;;;;;;5153999;27;19972;-61
2024/02/02 01:03:06;;;;;;;;;;;2.90;86.20;;;;;;5148221;27;20432;-61
2024/02/02 01:05:38;;;;;;;;;;;2.90;86.20;;;;;;5151502;27;20442;-62
2024/02/02 01:08:11;;;;;;;;;;;2.90;86.20;;;;;;5148389;27;19927;-61
2024/02/02 01:10:45;;;;;;;;;;;2.90;86.10;;;;;;5150797;27;19930;-62
2024/02/02 01:13:18;;;;;;;;;;;2.90;86.30;;;;;;5154387;27;20010;-61
2024/02/02 01:15:52;;;;;;;;;;;2.90;86.30;;;;;;5141717;27;19933;-60
2024/02/02 01:18:26;;;;;;;;;;;2.90;86.50;;;;;;5151018;27;19929;-61
2024/02/02 01:20:59;;;;;;;;;;;2.90;86.60;;;;;;5150644;27;19923;-62
2024/02/02 01:23:31;;;;;;;;;;;2.90;86.60;;;;;;5149154;27;19931;-61
2024/02/02 01:26:05;;;;;;;;;;;2.90;86.60;;;;;;5149061;27;19922;-62
2024/02/02 01:31:28;;;;;;;;;;;2.90;86.80;;;;;;5891454;23;19949;-71
2024/02/02 01:34:02;;;;;;;;;;;2.90;86.70;;;;;;4965247;28;20446;-60
2024/02/02 01:36:36;;;;;;;;;;;2.90;86.90;;;;;;4970287;28;19926;-60
2024/02/02 01:39:10;;;;;;;;;;;2.90;86.90;;;;;;4966154;28;19934;-60
2024/02/02 01:41:44;;;;;;;;;;;2.90;87.10;;;;;;4969773;28;19962;-61
2024/02/02 01:44:11;;;;;;;;;;;2.90;87.10;;;;;;4968586;28;19930;-60
2024/02/02 01:46:47;;;;;;;;;;;2.90;87.10;;;;;;4970552;28;19933;-59
2024/02/02 01:49:21;;;;;;;;;;;3.00;87.00;;;;;;4971874;28;20021;-60
2024/02/02 01:51:53;;;;;;;;;;;3.00;86.90;;;;;;4968910;28;19930;-60
2024/02/02 01:54:27;;;;;;;;;;;2.90;86.80;;;;;;4967104;28;19926;-61
2024/02/02 01:57:00;;;;;;;;;;;2.90;86.80;;;;;;4969886;28;19930;-60
2024/02/02 01:59:33;;;;;;;;;;;2.90;86.80;;;;;;4975120;28;19937;-60
2024/02/02 02:02:07;;;;;;;;;;;2.90;86.70;;;;;;4970322;28;20362;-60
2024/02/02 02:04:41;;;;;;;;;;;2.90;86.80;;;;;;4969291;28;19930;-60
2024/02/02 02:07:14;;;;;;;;;;;2.80;86.80;;;;;;4971130;28;20329;-60
2024/02/02 02:09:47;;;;;;;;;;;2.80;86.70;;;;;;4964407;28;20328;-61
2024/02/02 02:12:20;;;;;;;;;;;2.80;86.70;;;;;;4970738;28;20375;-61
2024/02/02 02:14:53;;;;;;;;;;;2.80;86.70;;;;;;4971288;28;19930;-59
2024/02/02 02:17:27;;;;;;;;;;;2.70;86.70;;;;;;4972095;28;19926;-60
2024/02/02 02:20:01;;;;;;;;;;;2.80;86.70;;;;;;4970202;28;19926;-61
2024/02/02 02:22:35;;;;;;;;;;;2.80;86.70;;;;;;4970543;28;19973;-59
2024/02/02 02:25:09;;;;;;;;;;;2.80;86.70;;;;;;4971178;28;20020;-61
2024/02/02 02:27:42;;;;;;;;;;;2.80;86.80;;;;;;4967309;28;19957;-60
2024/02/02 02:30:09;;;;;;;;;;;2.70;86.80;;;;;;4968549;28;20368;-62
2024/02/02 02:32:43;;;;;;;;;;;2.70;86.90;;;;;;4962777;28;20377;-61
2024/02/02 02:35:09;;;;;;;;;;;2.70;87.10;;;;;;4963840;28;19933;-61
2024/02/02 02:37:44;;;;;;;;;;;2.70;87.10;;;;;;4968120;28;19933;-62
2024/02/02 02:40:11;;;;;;;;;;;2.70;87.10;;;;;;4963956;28;19933;-60
2024/02/02 02:42:45;;;;;;;;;;;2.80;87.10;;;;;;4964344;28;19942;-61
2024/02/02 02:45:18;;;;;;;;;;;2.80;87.10;;;;;;4965265;28;19934;-61
2024/02/02 02:47:51;;;;;;;;;;;2.80;87.20;;;;;;4969718;28;19938;-60
2024/02/02 02:50:24;;;;;;;;;;;2.80;87.30;;;;;;4963500;28;20012;-61
2024/02/02 02:52:58;;;;;;;;;;;2.80;87.30;;;;;;4963146;28;20672;-60
2024/02/02 02:55:32;;;;;;;;;;;2.80;87.30;;;;;;4963877;28;19930;-60
2024/02/02 02:58:05;;;;;;;;;;;2.80;87.20;;;;;;4969652;28;19932;-61
2024/02/02 03:00:38;;;;;;;;;;;2.80;87.30;;;;;;4962755;28;20021;-60
2024/02/02 03:03:11;;;;;;;;;;;2.80;87.30;;;;;;4966535;28;19927;-61
2024/02/02 03:05:38;;;;;;;;;;;2.70;87.60;;;;;;4964498;28;19926;-60
2024/02/02 03:08:13;;;;;;;;;;;2.80;87.50;;;;;;4960420;28;19934;-62
2024/02/02 03:10:47;;;;;;;;;;;2.80;87.50;;;;;;4966001;28;19981;-60
2024/02/02 03:13:21;;;;;;;;;;;2.70;87.50;;;;;;4966692;28;19926;-60
2024/02/02 03:15:55;;;;;;;;;;;2.70;87.50;;;;;;4965958;28;19937;-59
2024/02/02 03:18:28;;;;;;;;;;;2.80;87.60;;;;;;4959760;28;19934;-60
2024/02/02 03:21:01;;;;;;;;;;;2.80;87.60;;;;;;4961564;28;19926;-61
2024/02/02 03:23:35;;;;;;;;;;;2.80;87.40;;;;;;4968510;28;19930;-60
2024/02/02 03:26:02;;;;;;;;;;;2.80;87.50;;;;;;4970649;28;19926;-61
2024/02/02 03:28:35;;;;;;;;;;;2.80;87.50;;;;;;4960023;28;19934;-61
2024/02/02 03:31:08;;;;;;;;;;;2.80;87.70;;;;;;4966623;28;19930;-59
2024/02/02 03:33:42;;;;;;;;;;;2.80;87.60;;;;;;4968301;28;19972;-63
2024/02/02 03:36:15;;;;;;;;;;;2.80;87.50;;;;;;4966837;28;20339;-61
2024/02/02 03:38:49;;;;;;;;;;;2.90;87.40;;;;;;4972600;28;19930;-61
2024/02/02 03:41:23;;;;;;;;;;;2.90;87.40;;;;;;4973080;28;19930;-61
2024/02/02 03:43:51;;;;;;;;;;;2.80;87.50;;;;;;4973134;28;19926;-60
2024/02/02 03:46:25;;;;;;;;;;;2.80;87.60;;;;;;4969693;28;20705;-62
2024/02/02 03:48:59;;;;;;;;;;;2.80;87.60;;;;;;4970726;28;19945;-60
2024/02/02 03:51:32;;;;;;;;;;;2.80;87.60;;;;;;4968749;28;19937;-61
2024/02/02 03:54:13;;;;;;;;;;;2.80;87.60;;;;;;4971525;28;19926;-61
2024/02/02 03:56:46;;;;;;;;;;;2.90;87.50;;;;;;4969684;28;19934;-60
2024/02/02 03:59:19;;;;;;;;;;;2.90;87.60;;;;;;4972215;28;19934;-60
2024/02/02 04:01:52;;;;;;;;;;;2.90;87.60;;;;;;4964438;28;19933;-60
2024/02/02 04:04:25;;;;;;;;;;;2.80;87.60;;;;;;4968662;28;20377;-60
2024/02/02 04:06:58;;;;;;;;;;;2.90;87.60;;;;;;4967889;28;20293;-60
2024/02/02 04:09:32;;;;;;;;;;;2.90;87.60;;;;;;4967141;28;20081;-59
2024/02/02 04:12:06;;;;;;;;;;;2.90;87.60;;;;;;4969420;28;19941;-72
2024/02/02 04:14:40;;;;;;;;;;;2.90;87.60;;;;;;4970466;28;19926;-72
2024/02/02 04:17:13;;;;;;;;;;;2.90;87.70;;;;;;4972211;28;20380;-72
2024/02/02 04:19:46;;;;;;;;;;;2.90;87.70;;;;;;4969856;28;19980;-72
2024/02/02 04:22:19;;;;;;;;;;;2.90;87.70;;;;;;4970784;28;19926;-72
2024/02/02 04:24:53;;;;;;;;;;;2.90;87.70;;;;;;4970124;28;19961;-72
2024/02/02 04:27:27;;;;;;;;;;;2.90;87.70;;;;;;4969995;28;19930;-71
2024/02/02 04:30:00;;;;;;;;;;;2.90;87.70;;;;;;4971151;28;19934;-72
2024/02/02 04:32:33;;;;;;;;;;;2.90;87.70;;;;;;4968273;28;19938;-71
2024/02/02 04:35:06;;;;;;;;;;;2.90;87.80;;;;;;4970875;28;20041;-71
2024/02/02 04:37:39;;;;;;;;;;;2.90;87.80;;;;;;4969395;28;19930;-71
2024/02/02 04:40:14;;;;;;;;;;;2.80;88.00;;;;;;4970979;28;19926;-72
2024/02/02 04:42:48;;;;;;;;;;;2.90;88.10;;;;;;4971109;28;20483;-72
2024/02/02 04:45:21;;;;;;;;;;;2.90;88.00;;;;;;4969722;28;19930;-72
2024/02/02 04:47:54;;;;;;;;;;;2.90;88.20;;;;;;4964268;28;20444;-72
2024/02/02 04:50:28;;;;;;;;;;;2.90;88.10;;;;;;4967533;28;20045;-73
2024/02/02 04:53:02;;;;;;;;;;;3.00;88.10;;;;;;4967044;28;20344;-72
2024/02/02 04:55:36;;;;;;;;;;;2.90;88.10;;;;;;4970626;28;20040;-72
2024/02/02 04:58:10;;;;;;;;;;;2.90;88.10;;;;;;4971306;28;19930;-72
2024/02/02 05:00:43;;;;;;;;;;;3.00;88.10;;;;;;4968947;28;20297;-72
2024/02/02 05:03:17;;;;;;;;;;;3.00;88.20;;;;;;4971843;28;20389;-72
2024/02/02 05:05:50;;;;;;;;;;;3.00;88.10;;;;;;4964456;28;20357;-72
2024/02/02 05:08:17;;;;;;;;;;;3.00;88.30;;;;;;4966195;28;20020;-71
2024/02/02 05:10:51;;;;;;;;;;;3.00;88.40;;;;;;4970147;28;20013;-72
2024/02/02 05:13:25;;;;;;;;;;;3.00;88.30;;;;;;4969092;28;20017;-72
2024/02/02 05:15:58;;;;;;;;;;;3.00;88.50;;;;;;4969907;28;19930;-72
2024/02/02 05:18:31;;;;;;;;;;;3.00;88.60;;;;;;4971522;28;19930;-72
2024/02/02 05:21:00;;;;;;;;;;;3.00;88.70;;;;;;4969674;28;19958;-65
2024/02/02 05:23:34;;;;;;;;;;;3.00;88.60;;;;;;4967632;28;19941;-71
2024/02/02 05:26:08;;;;;;;;;;;3.00;88.60;;;;;;4970414;28;19965;-72
2024/02/02 05:28:42;;;;;;;;;;;3.10;88.60;;;;;;4968540;28;19926;-72
2024/02/02 05:31:15;;;;;;;;;;;3.10;88.60;;;;;;4970460;28;19933;-72
2024/02/02 05:33:54;;;;;;;;;;;3.10;88.70;;;;;;4969780;28;19930;-71
2024/02/02 05:36:28;;;;;;;;;;;3.10;88.90;;;;;;4969098;28;19934;-71
2024/02/02 05:39:01;;;;;;;;;;;3.10;88.70;;;;;;4963694;28;19930;-73
2024/02/02 05:41:35;;;;;;;;;;;3.10;88.90;;;;;;4970690;28;19933;-71
2024/02/02 05:44:02;;;;;;;;;;;3.20;88.90;;;;;;4969633;28;19934;-73
2024/02/02 05:46:35;;;;;;;;;;;3.20;89.00;;;;;;4965706;28;19934;-72
2024/02/02 05:49:08;;;;;;;;;;;3.20;88.80;;;;;;4968419;28;19926;-72
2024/02/02 05:51:41;;;;;;;;;;;3.20;88.90;;;;;;4971134;28;19954;-71
2024/02/02 05:54:14;;;;;;;;;;;3.20;88.80;;;;;;4964403;28;20013;-72
2024/02/02 05:56:48;;;;;;;;;;;3.20;89.00;;;;;;4967340;28;19926;-71
2024/02/02 05:59:23;;;;;;;;;;;3.20;89.00;;;;;;4968660;28;19996;-71
2024/02/02 06:01:56;;;;;;;;;;;3.30;88.90;;;;;;4966129;28;19926;-72
2024/02/02 06:04:29;;;;;;;;;;;3.30;88.80;;;;;;4970066;28;19926;-72
2024/02/02 06:07:02;;;;;;;;;;;3.30;88.70;;;;;;4968031;28;19926;-71
2024/02/02 06:09:41;;;;;;;;;;;3.30;89.00;;;;;;4969582;28;20012;-72
2024/02/02 06:12:16;;;;;;;;;;;3.40;88.80;;;;;;4968582;28;20041;-72
2024/02/02 06:14:50;;;;;;;;;;;3.40;88.70;;;;;;4967525;28;19926;-72
2024/02/02 06:17:23;;;;;;;;;;;3.40;88.80;;;;;;4968443;28;19933;-73
2024/02/02 06:19:56;;;;;;;;;;;3.40;88.80;;;;;;4968556;28;19926;-72
2024/02/02 06:22:29;;;;;;;;;;;3.40;88.80;;;;;;4966703;28;20385;-72
2024/02/02 06:24:55;;;;;;;;;;;3.50;88.80;;;;;;4966325;28;19954;-72
2024/02/02 06:27:30;;;;;;;;;;;3.50;88.70;;;;;;4967382;28;19941;-71
2024/02/02 06:29:57;;;;;;;;;;;3.50;88.80;;;;;;4966705;28;20294;-72
2024/02/02 06:32:31;;;;;;;;;;;3.50;88.80;;;;;;4965463;28;19937;-67
2024/02/02 06:35:04;;;;;;;;;;;3.50;88.90;;;;;;4968122;28;20300;-65
2024/02/02 06:37:38;;;;;;;;;;;3.50;88.80;;;;;;4969329;28;19930;-65
2024/02/02 06:40:11;;;;;;;;;;;3.50;88.70;;;;;;4968717;28;20292;-66
2024/02/02 06:42:46;;;;;;;;;;;3.50;88.90;;;;;;4968972;28;20313;-66
2024/02/02 06:45:21;;;;;;;;;;;3.50;88.70;;;;;;4968136;28;19926;-66
2024/02/02 06:47:55;;;;;;;;;;;3.50;88.80;;;;;;4967484;28;19930;-65
2024/02/02 06:50:28;;;;;;;;;;;3.40;89.00;;;;;;4963059;28;19950;-66
2024/02/02 06:53:02;;;;;;;;;;;3.50;89.00;;;;;;4967376;28;19926;-67
2024/02/02 06:55:35;;;;;;;;;;;3.60;89.10;;;;;;4967775;28;19933;-66
2024/02/02 06:58:13;;;;;;;;;;;3.50;89.00;;;;;;4967350;28;20020;-66
2024/02/02 07:00:47;;;;;;;;;;;3.50;89.00;;;;;;4964686;28;20080;-67
2024/02/02 07:03:20;;;;;;;;;;;3.50;89.10;;;;;;4967874;28;19938;-65
2024/02/02 07:05:53;;;;;;;;;;;3.60;89.10;;;;;;4967960;28;19944;-65
2024/02/02 07:08:26;;;;;;;;;;;3.60;89.20;;;;;;4966422;28;19949;-64
2024/02/02 07:11:03;;;;;;;;;;;3.50;89.10;;;;;;4968410;28;20025;-66
2024/02/02 07:13:41;;;;;;;;;;;3.60;89.40;;;;;;4971221;28;20403;-66
2024/02/02 07:16:18;;;;;;;;;;;3.60;89.30;;;;;;4970866;28;19926;-65
2024/02/02 07:18:52;;;;;;;;;;;3.70;89.30;;;;;;4963738;28;20839;-65
2024/02/02 07:21:28;;;;;;;;;;;3.70;89.10;;;;;;4971415;28;20378;-66
2024/02/02 07:24:01;;;;;;;;;;;3.70;89.10;;;;;;4971425;28;19926;-66
2024/02/02 07:26:36;;;;;;;;;;;3.70;89.20;;;;;;4971917;28;19934;-65
2024/02/02 07:29:27;;;;;;;;;;;3.70;89.10;;;;;;4970588;28;20317;-67
2024/02/02 07:32:04;;;;;;;;;;;3.70;89.10;;;;;;4971273;28;19933;-65
2024/02/02 07:34:41;;;;;;;;;;;3.80;89.10;;;;;;4971520;28;19966;-65
2024/02/02 07:37:20;;;;;;;;;;;3.80;89.10;;;;;;4972620;28;19961;-66
2024/02/02 07:39:53;;;;;;;;;;;3.80;89.00;;;;;;4970917;28;19934;-66
2024/02/02 07:42:27;;;;;;;;;;;3.80;89.00;;;;;;4971661;28;19930;-60
2024/02/02 07:45:00;;;;;;;;;;;3.80;89.00;;;;;;4973161;28;19926;-60
2024/02/02 07:47:34;;;;;;;;;;;3.90;89.10;;;;;;4971683;28;20365;-59
2024/02/02 07:50:08;;;;;;;;;;;3.90;89.00;;;;;;4968898;28;19937;-61
2024/02/02 07:52:42;;;;;;;;;;;3.90;89.00;;;;;;4972177;28;19926;-61
2024/02/02 07:55:15;;;;;;;;;;;4.00;89.10;;;;;;4971543;28;19930;-59
2024/02/02 07:57:48;;;;;;;;;;;4.00;89.00;;;;;;4971112;28;19926;-60
2024/02/02 08:00:22;;;;;;;;;;;4.00;89.00;;;;;;4968698;28;19926;-61
2024/02/02 08:02:56;;;;;;;;;;;4.10;89.00;;;;;;4970319;28;19933;-60
2024/02/02 08:05:30;;;;;;;;;;;4.10;88.80;;;;;;4970001;28;19934;-61
2024/02/02 08:08:03;;;;;;;;;;;4.10;88.90;;;;;;4970259;28;19972;-60
2024/02/02 08:10:30;;;;;;;;;;;4.10;89.00;;;;;;4970549;28;20393;-60
2024/02/02 08:13:03;;;;;;;;;;;4.10;88.90;;;;;;4970833;28;19946;-60
2024/02/02 08:15:36;;;;;;;;;;;4.10;88.90;;;;;;4971696;28;19957;-61
2024/02/02 08:18:11;;;;;;;;;;;4.20;88.90;;;;;;4969279;28;19934;-60
2024/02/02 08:20:45;;;;;;;;;;;4.20;88.90;;;;;;4968973;28;20686;-59
2024/02/02 08:23:12;;;;;;;;;;;4.20;88.90;;;;;;4971430;28;19933;-60
2024/02/02 08:25:45;;;;;;;;;;;4.20;88.80;;;;;;4969348;28;19965;-61
2024/02/02 08:28:18;;;;;;;;;;;4.30;88.80;;;;;;4971180;28;19926;-60
2024/02/02 08:30:51;;;;;;;;;;;4.30;88.80;;;;;;4970678;28;19933;-60
2024/02/02 08:33:25;;;;;;;;;;;4.30;88.90;;;;;;4970428;28;19953;-61
2024/02/02 08:35:59;;;;;;;;;;;4.40;88.80;;;;;;4967931;28;19937;-60
2024/02/02 08:38:32;;;;;;;;;;;4.40;88.70;;;;;;4970565;28;19930;-61
2024/02/02 08:41:05;;;;;;;;;;;4.40;88.80;;;;;;4971359;28;19930;-61
2024/02/02 08:43:39;;;;;;;;;;;4.50;88.70;;;;;;4971553;28;19934;-60
2024/02/02 08:46:13;;;;;;;;;;;4.50;88.80;;;;;;4967189;28;19933;-61
2024/02/02 08:48:49;;;;;;;;;;;4.50;88.70;;;;;;4971924;28;19996;-63
2024/02/02 08:51:46;;;;;;;;;;;4.50;88.70;;;;;;4969283;28;19942;-62
2024/02/02 08:54:36;;;;;;;;;;;4.60;88.60;;;;;;4965026;28;19930;-62
2024/02/02 08:57:24;;;;;;;;;;;4.60;88.60;;;;;;4967517;28;19954;-60
2024/02/02 09:00:04;;;;;;;;;;;4.70;88.40;;;;;;4969355;28;19926;-61
2024/02/02 09:03:04;;;;;;;;;;;4.70;88.30;;;;;;4969071;28;19978;-61
2024/02/02 09:05:49;;;;;;;;;;;4.70;88.20;;;;;;4968251;28;19926;-61
2024/02/02 09:08:33;;;;;;;;;;;4.80;88.20;;;;;;4969101;28;19962;-62
2024/02/02 09:11:21;;;;;;;;;;;4.80;88.00;;;;;;4968883;28;19930;-61
2024/02/02 09:14:17;;;;;;;;;;;4.80;87.90;;;;;;4968615;28;19926;-62
2024/02/02 09:16:52;;;;;;;;;;;4.90;87.70;;;;;;4969166;28;20380;-62
2024/02/02 09:19:26;;;;;;;;;;;4.90;87.60;;;;;;4968895;28;19934;-62
2024/02/02 09:22:03;;;;;;;;;;;5.00;87.50;;;;;;4966856;28;20342;-61
2024/02/02 09:24:40;;;;;;;;;;;5.00;87.40;;;;;;4966227;28;19981;-61
2024/02/02 09:27:14;;;;;;;;;;;5.10;87.40;;;;;;4968877;28;19940;-62
2024/02/02 09:29:48;;;;;;;;;;;5.10;87.10;;;;;;4965838;28;20595;-61
2024/02/02 09:32:21;;;;;;;;;;;5.20;87.00;;;;;;4969508;28;19934;-61
2024/02/02 09:34:54;;;;;;;;;;;5.20;86.70;;;;;;4967527;28;19933;-62
2024/02/02 09:37:33;;;;;;;;;;;5.20;86.70;;;;;;4970912;28;19930;-61
2024/02/02 09:40:17;;;;;;;;;;;5.30;86.50;;;;;;4969385;28;19930;-62
2024/02/02 09:42:59;;;;;;;;;;;5.30;86.30;;;;;;4968279;28;19937;-61
2024/02/02 09:45:39;;;;;;;;;;;5.30;86.20;;;;;;4966692;28;20361;-62
2024/02/02 09:48:17;;;;;;;;;;;5.30;86.20;;;;;;4968654;28;19926;-61
2024/02/02 09:50:57;;;;;;;;;;;5.40;86.10;;;;;;4968840;28;19937;-61
2024/02/02 09:53:44;;;;;;;;;;;5.40;85.80;;;;;;4970050;28;19930;-62
2024/02/02 09:56:23;;;;;;;;;;;5.50;85.90;;;;;;4969926;28;19926;-61
2024/02/02 09:58:58;;;;;;;;;;;5.50;85.70;;;;;;4966408;28;19933;-62
2024/02/02 10:01:38;;;;;;;;;;;5.60;85.50;;;;;;4968071;28;19926;-62
2024/02/02 10:04:16;;;;;;;;;;;5.60;85.50;;;;;;4967440;28;19989;-63
2024/02/02 10:06:54;;;;;;;;;;;5.70;85.50;;;;;;4969389;28;19926;-63
2024/02/02 10:09:36;;;;;;;;;;;5.70;85.40;;;;;;4969098;28;20012;-63
2024/02/02 10:12:11;;;;;;;;;;;5.70;85.40;;;;;;4968586;28;20037;-63
2024/02/02 10:14:54;;;;;;;;;;;5.70;85.30;;;;;;4969130;28;20032;-63
2024/02/02 10:17:33;;;;;;;;;;;5.70;85.30;;;;;;4967524;28;19930;-63
2024/02/02 10:20:24;;;;;;;;;;;5.80;85.20;;;;;;4968903;28;19930;-62
2024/02/02 10:23:22;;;;;;;;;;;5.90;85.30;;;;;;4968289;28;19930;-63
2024/02/02 10:26:07;;;;;;;;;;;5.90;85.00;;;;;;4968822;28;19930;-62
2024/02/02 10:28:48;;;;;;;;;;;6.00;85.20;;;;;;4968702;28;19950;-61
2024/02/02 10:31:32;;;;;;;;;;;6.00;85.00;;;;;;4969803;28;20391;-62
2024/02/02 10:34:16;;;;;;;;;;;6.20;84.70;;;;;;4969029;28;19992;-62
2024/02/02 10:36:57;;;;;;;;;;;6.30;84.80;;;;;;4967825;28;20369;-62
2024/02/02 10:39:39;;;;;;;;;;;6.40;84.60;;;;;;4966863;28;20308;-63
2024/02/02 10:42:24;;;;;;;;;;;6.50;84.40;;;;;;4968895;28;20359;-63
2024/02/02 10:45:02;;;;;;;;;;;6.40;84.10;;;;;;4967084;28;19926;-63
2024/02/02 10:47:45;;;;;;;;;;;6.50;84.20;;;;;;4967383;28;19930;-62
2024/02/02 10:50:20;;;;;;;;;;;6.60;83.90;;;;;;4968076;28;19957;-62
2024/02/02 10:52:59;;;;;;;;;;;6.60;83.80;;;;;;4968399;28;19957;-62
2024/02/02 10:55:48;;;;;;;;;;;6.70;83.70;;;;;;4968242;28;19930;-63
2024/02/02 10:58:33;;;;;;;;;;;6.80;83.60;;;;;;4968935;28;19930;-62
2024/02/02 11:01:13;;;;;;;;;;;6.90;83.40;;;;;;4967329;28;19934;-62
2024/02/02 11:03:51;;;;;;;;;;;7.10;83.50;;;;;;4968406;28;20397;-63
2024/02/02 11:06:41;;;;;;;;;;;7.10;83.10;;;;;;4964591;28;19930;-64
2024/02/02 11:09:18;;;;;;;;;;;7.20;83.00;;;;;;4968653;28;19934;-63
2024/02/02 11:11:56;;;;;;;;;;;7.20;83.00;;;;;;4968659;28;19930;-67
2024/02/02 11:14:32;;;;;;;;;;;7.20;82.60;;;;;;4966768;28;19937;-65
2024/02/02 11:17:10;;;;;;;;;;;7.10;82.70;;;;;;4968420;28;19934;-66
2024/02/02 11:19:56;;;;;;;;;;;7.20;82.40;;;;;;4968913;28;19953;-67
2024/02/02 11:22:31;;;;;;;;;;;7.20;82.40;;;;;;4964737;28;19931;-66
2024/02/02 11:25:08;;;;;;;;;;;7.30;82.10;;;;;;4964976;28;20391;-67
2024/02/02 11:27:45;;;;;;;;;;;7.30;82.20;;;;;;4966654;28;20045;-67
2024/02/02 11:30:37;;;;;;;;;;;7.40;81.90;;;;;;4967745;28;19926;-66
2024/02/02 11:33:17;;;;;;;;;;;7.40;81.70;;;;;;4968346;28;19926;-66
2024/02/02 11:35:58;;;;;;;;;;;7.50;81.70;;;;;;4966905;28;19930;-66
2024/02/02 11:38:40;;;;;;;;;;;7.50;81.50;;;;;;4963395;28;19945;-67
2024/02/02 11:41:16;;;;;;;;;;;7.60;80.90;;;;;;4967004;28;19949;-66
2024/02/02 11:43:49;;;;;;;;;;;7.60;80.80;;;;;;4968733;28;19926;-67
2024/02/02 11:46:26;;;;;;;;;;;7.60;80.80;;;;;;4967749;28;20368;-64
2024/02/02 11:49:05;;;;;;;;;;;7.70;80.60;;;;;;4968698;28;19934;-66
2024/02/02 11:51:46;;;;;;;;;;;7.70;80.50;;;;;;4968976;28;19937;-66
2024/02/02 11:54:22;;;;;;;;;;;7.80;80.20;;;;;;4969571;28;20025;-65
2024/02/02 11:56:56;;;;;;;;;;;7.80;80.10;;;;;;4968286;28;19930;-67
2024/02/02 11:59:32;;;;;;;;;;;7.80;80.10;;;;;;4971480;28;19932;-66
2024/02/02 12:02:14;;;;;;;;;;;7.80;79.80;;;;;;4971653;28;20440;-67
2024/02/02 12:04:49;;;;;;;;;;;7.80;79.70;;;;;;4973057;28;19985;-67
2024/02/02 12:07:28;;;;;;;;;;;7.90;79.20;;;;;;4978044;28;19930;-67
2024/02/02 12:10:08;;;;;;;;;;;7.90;79.10;;;;;;4972343;28;20008;-67
2024/02/02 12:12:44;;;;;;;;;;;7.90;78.60;;;;;;4972721;28;19926;-67
2024/02/02 12:15:19;;;;;;;;;;;8.00;78.40;;;;;;4971523;28;19926;-68
2024/02/02 12:17:54;;;;;;;;;;;8.00;78.10;;;;;;4972514;28;19960;-67
2024/02/02 12:20:29;;;;;;;;;;;8.00;77.90;;;;;;4972486;28;19949;-68
2024/02/02 12:23:02;;;;;;;;;;;8.00;78.00;;;;;;4972122;28;20012;-60
2024/02/02 12:25:35;;;;;;;;;;;8.10;78.10;;;;;;4971512;28;19930;-61
2024/02/02 12:28:09;;;;;;;;;;;8.10;78.10;;;;;;4972632;28;20038;-61
2024/02/02 12:30:42;;;;;;;;;;;8.10;78.00;;;;;;4967417;28;20025;-59
2024/02/02 12:33:20;;;;;;;;;;;8.10;78.20;;;;;;4969747;28;19977;-60
2024/02/02 12:35:54;;;;;;;;;;;8.10;78.20;;;;;;4971542;28;20019;-61
2024/02/02 12:38:27;;;;;;;;;;;8.10;78.10;;;;;;4971687;28;19933;-60
2024/02/02 12:41:00;;;;;;;;;;;8.20;78.30;;;;;;4971547;28;19926;-61
2024/02/02 12:43:33;;;;;;;;;;;8.20;78.10;;;;;;4969890;28;19985;-60
2024/02/02 12:46:13;;;;;;;;;;;8.30;77.90;;;;;;4969118;28;19941;-61
2024/02/02 12:48:48;;;;;;;;;;;8.40;77.40;;;;;;4966326;28;19926;-60
2024/02/02 12:51:22;;;;;;;;;;;8.40;77.40;;;;;;4980916;28;19930;-61
2024/02/02 12:53:55;;;;;;;;;;;8.50;77.40;;;;;;4968131;28;19930;-61
2024/02/02 12:56:31;;;;;;;;;;;8.50;77.50;;;;;;4964198;28;19930;-60
2024/02/02 12:59:06;;;;;;;;;;;8.50;77.50;;;;;;4965564;28;19966;-61
2024/02/02 13:01:39;;;;;;;;;;;8.50;77.20;;;;;;4968314;28;19973;-61
2024/02/02 13:04:14;;;;;;;;;;;8.50;77.10;;;;;;4967892;28;19934;-60
2024/02/02 13:06:47;;;;;;;;;;;8.50;77.00;;;;;;4965291;28;20300;-61
2024/02/02 13:09:29;;;;;;;;;;;8.60;77.00;;;;;;4968243;28;20440;-60
2024/02/02 13:12:02;;;;;;;;;;;8.60;76.80;;;;;;4967482;28;20009;-61
2024/02/02 13:14:36;;;;;;;;;;;8.60;77.00;;;;;;4965503;28;19948;-61
2024/02/02 13:17:06;;;;;;;;;;;8.60;76.60;;;;;;4970656;28;19927;-60
2024/02/02 13:19:44;;;;;;;;;;;8.60;76.80;;;;;;4968396;28;19970;-60
2024/02/02 13:22:21;;;;;;;;;;;8.60;76.80;;;;;;4968724;28;19941;-61
2024/02/02 13:24:56;;;;;;;;;;;8.60;76.50;;;;;;4964988;28;19926;-60
2024/02/02 13:27:30;;;;;;;;;;;8.70;76.40;;;;;;4966606;28;20032;-60
2024/02/02 13:30:12;;;;;;;;;;;8.70;76.30;;;;;;4970279;28;19930;-60
2024/02/02 13:32:47;;;;;;;;;;;8.70;76.60;;;;;;4962954;28;19926;-71
2024/02/02 13:35:25;;;;;;;;;;;8.70;76.70;;;;;;4970522;28;19930;-73
2024/02/02 13:38:02;;;;;;;;;;;8.70;76.80;;;;;;4967196;28;19940;-75
2024/02/02 13:40:35;;;;;;;;;;;8.70;76.90;;;;;;4969395;28;19978;-74
2024/02/02 13:43:12;;;;;;;;;;;8.70;76.90;;;;;;4960742;28;19930;-75
2024/02/02 13:45:46;;;;;;;;;;;8.70;77.00;;;;;;4965919;28;20362;-74
2024/02/02 13:48:23;;;;;;;;;;;8.70;76.90;;;;;;4964149;28;19926;-75
2024/02/02 13:51:00;;;;;;;;;;;8.70;76.80;;;;;;4968669;28;19942;-73
2024/02/02 13:53:33;;;;;;;;;;;8.70;76.80;;;;;;4970054;28;20403;-73
2024/02/02 13:56:09;;;;;;;;;;;8.70;76.70;;;;;;4968737;28;19936;-72
2024/02/02 13:58:43;;;;;;;;;;;8.70;76.70;;;;;;4967840;28;19942;-76
2024/02/02 14:01:18;;;;;;;;;;;8.70;76.40;;;;;;4967158;28;19926;-75
2024/02/02 14:03:52;;;;;;;;;;;8.70;76.20;;;;;;4969374;28;19926;-75
2024/02/02 14:06:26;;;;;;;;;;;8.80;76.30;;;;;;4969682;28;19934;-75
2024/02/02 14:09:14;;;;;;;;;;;8.80;76.10;;;;;;4969143;28;20483;-72
2024/02/02 14:12:01;;;;;;;;;;;8.80;75.80;;;;;;4965513;28;19926;-74
2024/02/02 14:14:34;;;;;;;;;;;8.80;75.70;;;;;;4968821;28;19937;-75
2024/02/02 14:17:08;;;;;;;;;;;8.80;75.70;;;;;;4968895;28;19961;-75
2024/02/02 14:19:43;;;;;;;;;;;8.90;75.60;;;;;;4968884;28;20017;-76
2024/02/02 14:22:17;;;;;;;;;;;8.80;75.50;;;;;;4969468;28;19951;-74
2024/02/02 14:24:55;;;;;;;;;;;8.90;75.60;;;;;;4968734;28;19930;-75
2024/02/02 14:27:32;;;;;;;;;;;8.90;75.20;;;;;;4968912;28;20389;-73
2024/02/02 14:30:07;;;;;;;;;;;8.90;75.40;;;;;;4967283;28;20144;-75
2024/02/02 14:32:40;;;;;;;;;;;8.90;75.20;;;;;;4968711;28;20790;-74
2024/02/02 14:35:13;;;;;;;;;;;8.90;75.20;;;;;;4968691;28;19930;-76
2024/02/02 14:37:47;;;;;;;;;;;8.90;75.30;;;;;;4968712;28;19937;-76
2024/02/02 14:40:22;;;;;;;;;;;8.90;74.90;;;;;;4964882;28;19974;-76
2024/02/02 14:42:55;;;;;;;;;;;8.90;75.10;;;;;;4966402;28;20809;-61
2024/02/02 14:45:28;;;;;;;;;;;8.80;74.70;;;;;;4965344;28;20463;-62
2024/02/02 14:48:01;;;;;;;;;;;8.80;74.70;;;;;;4976825;28;20297;-61
2024/02/02 14:50:35;;;;;;;;;;;8.80;74.90;;;;;;4968958;28;19933;-62
2024/02/02 14:53:09;;;;;;;;;;;8.70;74.90;;;;;;4966756;28;20346;-62
2024/02/02 14:55:45;;;;;;;;;;;8.80;75.00;;;;;;4967935;28;20994;-61
2024/02/02 14:58:18;;;;;;;;;;;8.70;74.80;;;;;;4968717;28;19973;-61
2024/02/02 15:00:54;;;;;;;;;;;8.70;75.10;;;;;;4968378;28;19981;-61
2024/02/02 15:03:27;;;;;;;;;;;8.70;75.20;;;;;;4967032;28;20416;-61
2024/02/02 15:06:00;;;;;;;;;;;8.60;75.40;;;;;;4966362;28;20400;-61
2024/02/02 15:08:35;;;;;;;;;;;8.60;75.30;;;;;;4968580;28;20045;-62
2024/02/02 15:11:09;;;;;;;;;;;8.60;75.50;;;;;;4968714;28;20365;-62
2024/02/02 15:13:42;;;;;;;;;;;8.60;75.40;;;;;;4968315;28;20372;-61
2024/02/02 15:16:15;;;;;;;;;;;8.60;75.20;;;;;;4968774;28;20340;-61
2024/02/02 15:18:48;;;;;;;;;;;8.60;75.40;;;;;;4967527;28;19944;-61
2024/02/02 15:21:21;;;;;;;;;;;8.60;75.50;;;;;;4966670;28;19930;-61